sensor_id;sensor_type;location;lat;lon;timestamp;pressure;altitude;pressure_sealevel;temperature;humidity
42001;BME280;27689;48.390;10.856;2023-01-31T00:01:24;96851.88;;;2.35;98.53
42001;BME280;27689;48.390;10.856;2023-01-31T00:04:10;96846.94;;;2.30;98.61
42001;BME280;27689;48.390;10.856;2023-01-31T00:06:54;96839.53;;;2.40;98.23
42001;BME280;27689;48.390;10.856;2023-01-31T00:09:38;96841.91;;;2.44;97.79
42001;BME280;27689;48.390;10.856;2023-01-31T00:12:22;96834.91;;;2.46;97.74
42001;BME280;27689;48.390;10.856;2023-01-31T00:15:07;96843.56;;;2.45;97.30
42001;BME280;27689;48.390;10.856;2023-01-31T00:17:51;96838.34;;;2.30;97.88
42001;BME280;27689;48.390;10.856;2023-01-31T00:20:35;96852.72;;;2.35;97.59
42001;BME280;27689;48.390;10.856;2023-01-31T00:23:19;96841.63;;;2.33;98.54
42001;BME280;27689;48.390;10.856;2023-01-31T00:26:50;96840.84;;;2.48;97.96
42001;BME280;27689;48.390;10.856;2023-01-31T00:29:27;96841.97;;;2.43;97.77
42001;BME280;27689;48.390;10.856;2023-01-31T00:32:11;96847.69;;;2.50;97.30
42001;BME280;27689;48.390;10.856;2023-01-31T00:34:55;96850.69;;;2.58;96.81
42001;BME280;27689;48.390;10.856;2023-01-31T00:37:39;96839.59;;;2.56;96.22
42001;BME280;27689;48.390;10.856;2023-01-31T00:40:23;96844.47;;;2.44;97.08
42001;BME280;27689;48.390;10.856;2023-01-31T00:43:07;96837.16;;;2.53;96.25
42001;BME280;27689;48.390;10.856;2023-01-31T00:45:51;96838.56;;;2.42;97.23
42001;BME280;27689;48.390;10.856;2023-01-31T00:48:35;96841.28;;;2.39;97.88
42001;BME280;27689;48.390;10.856;2023-01-31T00:51:20;96852.84;;;2.50;97.07
42001;BME280;27689;48.390;10.856;2023-01-31T00:54:04;96846.91;;;2.47;97.39
42001;BME280;27689;48.390;10.856;2023-01-31T00:56:48;96840.00;;;2.48;96.66
42001;BME280;27689;48.390;10.856;2023-01-31T00:59:31;96845.88;;;2.34;98.10
42001;BME280;27689;48.390;10.856;2023-01-31T01:02:15;96847.84;;;2.46;96.91
42001;BME280;27689;48.390;10.856;2023-01-31T01:04:59;96836.56;;;2.47;97.50
42001;BME280;27689;48.390;10.856;2023-01-31T01:07:43;96845.13;;;2.32;98.18
42001;BME280;27689;48.390;10.856;2023-01-31T01:10:27;96843.03;;;2.39;97.09
42001;BME280;27689;48.390;10.856;2023-01-31T01:13:11;96840.00;;;2.48;96.79
42001;BME280;27689;48.390;10.856;2023-01-31T01:15:54;96834.81;;;2.48;96.50
42001;BME280;27689;48.390;10.856;2023-01-31T01:18:39;96843.72;;;2.42;96.81
42001;BME280;27689;48.390;10.856;2023-01-31T01:21:25;96847.84;;;2.29;97.85
42001;BME280;27689;48.390;10.856;2023-01-31T01:24:15;96833.09;;;2.31;97.26
42001;BME280;27689;48.390;10.856;2023-01-31T01:26:59;96841.38;;;2.38;96.95
42001;BME280;27689;48.390;10.856;2023-01-31T01:29:43;96852.13;;;2.30;97.23
42001;BME280;27689;48.390;10.856;2023-01-31T01:32:27;96851.44;;;2.27;97.58
42001;BME280;27689;48.390;10.856;2023-01-31T01:35:11;96853.31;;;2.23;97.38
42001;BME280;27689;48.390;10.856;2023-01-31T01:37:55;96859.44;;;2.22;97.76
42001;BME280;27689;48.390;10.856;2023-01-31T01:40:39;96850.59;;;2.09;98.09
42001;BME280;27689;48.390;10.856;2023-01-31T01:43:39;96850.25;;;1.99;99.05
42001;BME280;27689;48.390;10.856;2023-01-31T01:46:40;96847.72;;;2.15;98.22
42001;BME280;27689;48.390;10.856;2023-01-31T01:49:34;96853.19;;;2.09;97.99
42001;BME280;27689;48.390;10.856;2023-01-31T01:52:20;96856.09;;;1.86;99.41
42001;BME280;27689;48.390;10.856;2023-01-31T01:55:20;96840.72;;;1.83;99.14
42001;BME280;27689;48.390;10.856;2023-01-31T01:58:24;96846.81;;;1.82;99.31
42001;BME280;27689;48.390;10.856;2023-01-31T02:01:10;96855.72;;;1.76;100.00
42001;BME280;27689;48.390;10.856;2023-01-31T02:03:56;96874.94;;;1.88;99.21
42001;BME280;27689;48.390;10.856;2023-01-31T02:06:40;96869.91;;;1.85;99.28
42001;BME280;27689;48.390;10.856;2023-01-31T02:09:35;96870.19;;;1.78;99.71
42001;BME280;27689;48.390;10.856;2023-01-31T02:12:22;96863.00;;;1.85;99.84
42001;BME280;27689;48.390;10.856;2023-01-31T02:15:07;96858.13;;;1.79;99.38
42001;BME280;27689;48.390;10.856;2023-01-31T02:17:52;96873.72;;;1.77;99.11
42001;BME280;27689;48.390;10.856;2023-01-31T02:24:42;96882.13;;;1.64;100.00
42001;BME280;27689;48.390;10.856;2023-01-31T02:27:47;96883.34;;;1.57;100.00
42001;BME280;27689;48.390;10.856;2023-01-31T02:31:00;96878.66;;;1.82;99.00
42001;BME280;27689;48.390;10.856;2023-01-31T02:34:01;96888.78;;;1.87;99.16
42001;BME280;27689;48.390;10.856;2023-01-31T02:40:17;96881.22;;;1.82;99.22
42001;BME280;27689;48.390;10.856;2023-01-31T02:43:19;96884.78;;;1.80;98.96
42001;BME280;27689;48.390;10.856;2023-01-31T02:46:15;96890.44;;;1.88;98.53
42001;BME280;27689;48.390;10.856;2023-01-31T02:49:14;96901.97;;;1.81;98.55
42001;BME280;27689;48.390;10.856;2023-01-31T02:52:34;96899.09;;;1.87;97.94
42001;BME280;27689;48.390;10.856;2023-01-31T02:55:29;96906.81;;;1.69;99.04
42001;BME280;27689;48.390;10.856;2023-01-31T02:58:36;96907.13;;;1.81;98.76
42001;BME280;27689;48.390;10.856;2023-01-31T03:01:26;96908.16;;;1.78;98.97
42001;BME280;27689;48.390;10.856;2023-01-31T03:04:12;96906.38;;;1.78;98.34
42001;BME280;27689;48.390;10.856;2023-01-31T03:06:58;96910.31;;;1.68;99.21
42001;BME280;27689;48.390;10.856;2023-01-31T03:10:21;96899.94;;;1.51;100.00
42001;BME280;27689;48.390;10.856;2023-01-31T03:19:37;96904.31;;;1.68;98.32
42001;BME280;27689;48.390;10.856;2023-01-31T03:22:28;96904.91;;;1.56;98.97
42001;BME280;27689;48.390;10.856;2023-01-31T03:25:14;96908.03;;;1.62;98.75
42001;BME280;27689;48.390;10.856;2023-01-31T03:28:02;96899.34;;;1.46;99.59
42001;BME280;27689;48.390;10.856;2023-01-31T03:31:02;96909.16;;;1.38;100.00
42001;BME280;27689;48.390;10.856;2023-01-31T03:33:50;96918.47;;;1.42;99.63
42001;BME280;27689;48.390;10.856;2023-01-31T03:40:04;96926.06;;;1.45;99.25
42001;BME280;27689;48.390;10.856;2023-01-31T03:42:56;96932.41;;;1.38;99.87
42001;BME280;27689;48.390;10.856;2023-01-31T03:45:48;96930.78;;;1.35;99.46
42001;BME280;27689;48.390;10.856;2023-01-31T03:48:37;96924.13;;;1.31;99.69
42001;BME280;27689;48.390;10.856;2023-01-31T03:51:26;96920.41;;;1.37;99.41
42001;BME280;27689;48.390;10.856;2023-01-31T03:54:18;96942.88;;;1.35;99.56
42001;BME280;27689;48.390;10.856;2023-01-31T03:57:13;96951.94;;;1.25;100.00
42001;BME280;27689;48.390;10.856;2023-01-31T04:00:02;96957.88;;;1.27;100.00
42001;BME280;27689;48.390;10.856;2023-01-31T04:02:52;96956.00;;;1.30;100.00
42001;BME280;27689;48.390;10.856;2023-01-31T04:05:38;96948.88;;;1.17;100.00
42001;BME280;27689;48.390;10.856;2023-01-31T04:08:23;96957.59;;;1.14;100.00
42001;BME280;27689;48.390;10.856;2023-01-31T04:11:10;96963.03;;;1.27;100.00
42001;BME280;27689;48.390;10.856;2023-01-31T04:13:56;96966.19;;;1.33;100.00
42001;BME280;27689;48.390;10.856;2023-01-31T04:16:39;96972.94;;;1.17;100.00
42001;BME280;27689;48.390;10.856;2023-01-31T04:19:23;96976.72;;;1.29;100.00
42001;BME280;27689;48.390;10.856;2023-01-31T04:22:07;96987.78;;;1.12;100.00
42001;BME280;27689;48.390;10.856;2023-01-31T04:24:51;96983.88;;;1.03;100.00
42001;BME280;27689;48.390;10.856;2023-01-31T04:27:35;96980.88;;;1.13;100.00
42001;BME280;27689;48.390;10.856;2023-01-31T04:30:19;96983.50;;;1.31;100.00
42001;BME280;27689;48.390;10.856;2023-01-31T04:33:03;96985.69;;;1.20;100.00
42001;BME280;27689;48.390;10.856;2023-01-31T04:35:47;96974.19;;;1.27;99.99
42001;BME280;27689;48.390;10.856;2023-01-31T04:38:30;96991.41;;;1.08;100.00
42001;BME280;27689;48.390;10.856;2023-01-31T04:41:14;96995.28;;;0.98;100.00
42001;BME280;27689;48.390;10.856;2023-01-31T04:43:58;96989.72;;;1.07;100.00
42001;BME280;27689;48.390;10.856;2023-01-31T04:46:43;96995.72;;;1.08;100.00
42001;BME280;27689;48.390;10.856;2023-01-31T04:49:29;96991.56;;;1.24;100.00
42001;BME280;27689;48.390;10.856;2023-01-31T04:52:13;97000.81;;;1.09;100.00
42001;BME280;27689;48.390;10.856;2023-01-31T04:54:57;97012.38;;;1.00;100.00
42001;BME280;27689;48.390;10.856;2023-01-31T04:57:41;97006.16;;;1.04;100.00
42001;BME280;27689;48.390;10.856;2023-01-31T05:00:25;97006.53;;;0.97;100.00
42001;BME280;27689;48.390;10.856;2023-01-31T05:03:09;97019.41;;;0.97;100.00
42001;BME280;27689;48.390;10.856;2023-01-31T05:05:53;97011.69;;;0.97;100.00
42001;BME280;27689;48.390;10.856;2023-01-31T05:08:37;96996.38;;;1.13;100.00
42001;BME280;27689;48.390;10.856;2023-01-31T05:11:21;97002.44;;;1.12;100.00
42001;BME280;27689;48.390;10.856;2023-01-31T05:14:05;97006.75;;;1.11;100.00
42001;BME280;27689;48.390;10.856;2023-01-31T05:16:49;97009.16;;;1.16;100.00
42001;BME280;27689;48.390;10.856;2023-01-31T05:19:33;97001.34;;;1.17;100.00
42001;BME280;27689;48.390;10.856;2023-01-31T05:22:17;97017.13;;;1.10;100.00
42001;BME280;27689;48.390;10.856;2023-01-31T05:25:05;97015.53;;;1.07;100.00
42001;BME280;27689;48.390;10.856;2023-01-31T05:27:49;97022.59;;;1.03;100.00
42001;BME280;27689;48.390;10.856;2023-01-31T05:30:33;97025.78;;;1.09;100.00
42001;BME280;27689;48.390;10.856;2023-01-31T05:33:18;97034.44;;;1.08;100.00
42001;BME280;27689;48.390;10.856;2023-01-31T05:36:05;97027.59;;;1.06;100.00
42001;BME280;27689;48.390;10.856;2023-01-31T05:38:49;97028.66;;;1.02;100.00
42001;BME280;27689;48.390;10.856;2023-01-31T05:41:34;97024.75;;;1.13;100.00
42001;BME280;27689;48.390;10.856;2023-01-31T05:44:18;97012.50;;;1.18;99.41
42001;BME280;27689;48.390;10.856;2023-01-31T05:47:02;97028.94;;;1.15;99.79
42001;BME280;27689;48.390;10.856;2023-01-31T05:49:46;97021.75;;;1.22;99.34
42001;BME280;27689;48.390;10.856;2023-01-31T05:52:30;97017.72;;;1.16;99.71
42001;BME280;27689;48.390;10.856;2023-01-31T05:55:14;97017.31;;;1.25;98.95
42001;BME280;27689;48.390;10.856;2023-01-31T05:57:58;97021.56;;;1.26;99.13
42001;BME280;27689;48.390;10.856;2023-01-31T06:00:43;97008.19;;;1.18;99.36
42001;BME280;27689;48.390;10.856;2023-01-31T06:03:27;97000.34;;;1.20;99.13
42001;BME280;27689;48.390;10.856;2023-01-31T06:06:11;96998.69;;;1.19;99.83
42001;BME280;27689;48.390;10.856;2023-01-31T06:08:55;96987.66;;;1.15;99.58
42001;BME280;27689;48.390;10.856;2023-01-31T06:11:39;96989.59;;;1.10;99.90
42001;BME280;27689;48.390;10.856;2023-01-31T06:14:23;97005.78;;;1.14;99.71
42001;BME280;27689;48.390;10.856;2023-01-31T06:17:07;96994.06;;;1.25;98.85
42001;BME280;27689;48.390;10.856;2023-01-31T06:19:52;96997.84;;;1.18;99.03
42001;BME280;27689;48.390;10.856;2023-01-31T06:22:36;97003.16;;;1.15;99.41
42001;BME280;27689;48.390;10.856;2023-01-31T06:25:20;96995.88;;;1.23;98.74
42001;BME280;27689;48.390;10.856;2023-01-31T06:28:04;97004.53;;;1.22;98.73
42001;BME280;27689;48.390;10.856;2023-01-31T06:30:48;97009.28;;;1.13;99.45
42001;BME280;27689;48.390;10.856;2023-01-31T06:33:32;97021.97;;;1.17;99.52
42001;BME280;27689;48.390;10.856;2023-01-31T06:36:16;97013.34;;;1.18;99.19
42001;BME280;27689;48.390;10.856;2023-01-31T06:39:00;97012.34;;;1.21;98.44
42001;BME280;27689;48.390;10.856;2023-01-31T06:41:44;97024.63;;;1.34;98.50
42001;BME280;27689;48.390;10.856;2023-01-31T06:44:28;97025.63;;;1.32;97.98
42001;BME280;27689;48.390;10.856;2023-01-31T06:47:12;97032.66;;;1.28;98.30
42001;BME280;27689;48.390;10.856;2023-01-31T06:49:57;97028.53;;;1.24;98.80
42001;BME280;27689;48.390;10.856;2023-01-31T06:52:42;97034.16;;;1.14;99.29
42001;BME280;27689;48.390;10.856;2023-01-31T06:55:26;97040.09;;;1.16;99.28
42001;BME280;27689;48.390;10.856;2023-01-31T06:58:10;97049.13;;;1.26;98.43
42001;BME280;27689;48.390;10.856;2023-01-31T07:00:54;97051.13;;;1.19;99.05
42001;BME280;27689;48.390;10.856;2023-01-31T07:03:38;97046.41;;;1.29;98.08
42001;BME280;27689;48.390;10.856;2023-01-31T07:06:22;97046.03;;;1.18;98.33
42001;BME280;27689;48.390;10.856;2023-01-31T07:09:06;97043.06;;;1.06;99.02
42001;BME280;27689;48.390;10.856;2023-01-31T07:11:50;97034.88;;;1.17;98.28
42001;BME280;27689;48.390;10.856;2023-01-31T07:14:34;97037.78;;;1.10;98.89
42001;BME280;27689;48.390;10.856;2023-01-31T07:17:18;97045.28;;;1.34;97.86
42001;BME280;27689;48.390;10.856;2023-01-31T07:20:06;97051.41;;;1.13;98.73
42001;BME280;27689;48.390;10.856;2023-01-31T07:22:55;97048.22;;;1.06;99.13
42001;BME280;27689;48.390;10.856;2023-01-31T07:25:39;97054.88;;;1.12;99.28
42001;BME280;27689;48.390;10.856;2023-01-31T07:28:23;97052.34;;;1.11;98.87
42001;BME280;27689;48.390;10.856;2023-01-31T07:31:11;97055.06;;;1.08;98.98
42001;BME280;27689;48.390;10.856;2023-01-31T07:33:55;97062.56;;;1.14;98.40
42001;BME280;27689;48.390;10.856;2023-01-31T07:36:39;97058.31;;;1.13;98.86
42001;BME280;27689;48.390;10.856;2023-01-31T07:39:23;97047.00;;;1.15;98.04
42001;BME280;27689;48.390;10.856;2023-01-31T07:42:07;97043.13;;;1.05;98.18
42001;BME280;27689;48.390;10.856;2023-01-31T07:44:51;97048.38;;;1.03;98.25
42001;BME280;27689;48.390;10.856;2023-01-31T07:47:34;97044.56;;;1.12;97.93
42001;BME280;27689;48.390;10.856;2023-01-31T07:50:18;97047.84;;;1.16;98.34
42001;BME280;27689;48.390;10.856;2023-01-31T07:53:02;97043.72;;;1.12;98.21
42001;BME280;27689;48.390;10.856;2023-01-31T07:55:46;97053.63;;;1.21;98.11
42001;BME280;27689;48.390;10.856;2023-01-31T07:58:30;97044.97;;;1.22;98.08
42001;BME280;27689;48.390;10.856;2023-01-31T08:01:21;97045.22;;;1.36;98.23
42001;BME280;27689;48.390;10.856;2023-01-31T08:04:24;97042.72;;;1.53;96.97
42001;BME280;27689;48.390;10.856;2023-01-31T08:07:08;97037.44;;;1.56;96.44
42001;BME280;27689;48.390;10.856;2023-01-31T08:09:52;97038.97;;;1.60;94.91
42001;BME280;27689;48.390;10.856;2023-01-31T08:12:36;97031.91;;;1.45;95.14
42001;BME280;27689;48.390;10.856;2023-01-31T08:15:20;97037.09;;;1.45;95.51
42001;BME280;27689;48.390;10.856;2023-01-31T08:18:04;97039.31;;;1.53;95.46
42001;BME280;27689;48.390;10.856;2023-01-31T08:20:48;97044.28;;;1.57;94.16
42001;BME280;27689;48.390;10.856;2023-01-31T08:23:32;97048.34;;;1.63;94.51
42001;BME280;27689;48.390;10.856;2023-01-31T08:26:18;97051.31;;;1.54;93.80
42001;BME280;27689;48.390;10.856;2023-01-31T08:29:03;97055.84;;;1.67;94.55
42001;BME280;27689;48.390;10.856;2023-01-31T08:31:47;97052.88;;;1.76;93.55
42001;BME280;27689;48.390;10.856;2023-01-31T08:34:31;97054.03;;;1.69;93.29
42001;BME280;27689;48.390;10.856;2023-01-31T08:37:15;97054.94;;;1.68;93.70
42001;BME280;27689;48.390;10.856;2023-01-31T08:39:59;97053.97;;;1.71;93.59
42001;BME280;27689;48.390;10.856;2023-01-31T08:42:43;97050.22;;;1.78;93.50
42001;BME280;27689;48.390;10.856;2023-01-31T08:45:28;97054.19;;;1.85;93.10
42001;BME280;27689;48.390;10.856;2023-01-31T08:48:12;97038.94;;;1.79;92.91
42001;BME280;27689;48.390;10.856;2023-01-31T08:50:55;97042.09;;;1.86;92.72
42001;BME280;27689;48.390;10.856;2023-01-31T08:53:43;97048.66;;;1.93;92.78
42001;BME280;27689;48.390;10.856;2023-01-31T08:56:27;97050.41;;;2.28;92.49
42001;BME280;27689;48.390;10.856;2023-01-31T08:59:11;97046.56;;;2.37;89.78
42001;BME280;27689;48.390;10.856;2023-01-31T09:01:55;97046.75;;;2.51;89.14
42001;BME280;27689;48.390;10.856;2023-01-31T09:04:39;97059.50;;;2.54;86.93
42001;BME280;27689;48.390;10.856;2023-01-31T09:07:23;97047.13;;;2.61;86.88
42001;BME280;27689;48.390;10.856;2023-01-31T09:10:07;97059.44;;;2.73;85.81
42001;BME280;27689;48.390;10.856;2023-01-31T09:12:51;97069.34;;;2.65;83.61
42001;BME280;27689;48.390;10.856;2023-01-31T09:15:35;97051.59;;;2.57;84.00
42001;BME280;27689;48.390;10.856;2023-01-31T09:18:19;97055.56;;;2.64;83.50
42001;BME280;27689;48.390;10.856;2023-01-31T09:21:04;97046.41;;;2.57;82.93
42001;BME280;27689;48.390;10.856;2023-01-31T09:23:57;97055.94;;;2.57;83.54
42001;BME280;27689;48.390;10.856;2023-01-31T09:26:41;97052.16;;;2.64;82.94
42001;BME280;27689;48.390;10.856;2023-01-31T09:29:25;97058.59;;;2.72;83.36
42001;BME280;27689;48.390;10.856;2023-01-31T09:32:10;97053.06;;;2.80;83.00
42001;BME280;27689;48.390;10.856;2023-01-31T09:34:54;97048.94;;;2.93;82.56
42001;BME280;27689;48.390;10.856;2023-01-31T09:37:38;97048.09;;;2.93;82.72
42001;BME280;27689;48.390;10.856;2023-01-31T09:40:23;97052.31;;;2.95;81.61
42001;BME280;27689;48.390;10.856;2023-01-31T09:43:10;97049.22;;;3.04;81.23
42001;BME280;27689;48.390;10.856;2023-01-31T09:45:57;97051.38;;;2.96;82.44
42001;BME280;27689;48.390;10.856;2023-01-31T09:48:45;97055.47;;;3.00;82.00
42001;BME280;27689;48.390;10.856;2023-01-31T09:51:33;97065.06;;;2.98;81.90
42001;BME280;27689;48.390;10.856;2023-01-31T09:54:26;97061.34;;;3.04;82.01
42001;BME280;27689;48.390;10.856;2023-01-31T10:00:15;97060.78;;;2.97;81.30
42001;BME280;27689;48.390;10.856;2023-01-31T10:11:55;97059.81;;;3.00;81.77
42001;BME280;27689;48.390;10.856;2023-01-31T10:14:46;97056.38;;;3.16;81.59
42001;BME280;27689;48.390;10.856;2023-01-31T10:17:40;97046.28;;;3.28;80.76
42001;BME280;27689;48.390;10.856;2023-01-31T10:20:38;97035.78;;;3.31;79.00
42001;BME280;27689;48.390;10.856;2023-01-31T10:23:34;97031.22;;;3.36;78.66
42001;BME280;27689;48.390;10.856;2023-01-31T10:26:28;97021.53;;;3.39;78.89
42001;BME280;27689;48.390;10.856;2023-01-31T10:29:23;97019.19;;;3.50;77.61
42001;BME280;27689;48.390;10.856;2023-01-31T10:32:39;97002.75;;;3.67;76.23
42001;BME280;27689;48.390;10.856;2023-01-31T10:35:30;97009.69;;;3.67;75.49
42001;BME280;27689;48.390;10.856;2023-01-31T10:38:29;97000.00;;;3.70;75.35
42001;BME280;27689;48.390;10.856;2023-01-31T10:41:19;96994.47;;;3.76;74.38
42001;BME280;27689;48.390;10.856;2023-01-31T10:44:14;96992.81;;;3.75;74.88
42001;BME280;27689;48.390;10.856;2023-01-31T10:47:00;96991.81;;;3.94;74.86
42001;BME280;27689;48.390;10.856;2023-01-31T10:49:46;96988.88;;;4.00;73.65
42001;BME280;27689;48.390;10.856;2023-01-31T10:58:48;96986.09;;;3.71;73.15
42001;BME280;27689;48.390;10.856;2023-01-31T11:01:33;96967.81;;;3.74;72.31
42001;BME280;27689;48.390;10.856;2023-01-31T11:04:27;96971.75;;;3.81;72.61
42001;BME280;27689;48.390;10.856;2023-01-31T11:07:12;96959.63;;;3.82;72.71
42001;BME280;27689;48.390;10.856;2023-01-31T11:09:56;96952.69;;;3.82;72.53
42001;BME280;27689;48.390;10.856;2023-01-31T11:12:51;96956.75;;;3.86;71.84
42001;BME280;27689;48.390;10.856;2023-01-31T11:15:40;96943.16;;;3.67;71.30
42001;BME280;27689;48.390;10.856;2023-01-31T11:18:46;96936.47;;;3.63;72.76
42001;BME280;27689;48.390;10.856;2023-01-31T11:21:33;96947.81;;;3.76;73.35
42001;BME280;27689;48.390;10.856;2023-01-31T11:24:28;96931.78;;;3.85;73.34
42001;BME280;27689;48.390;10.856;2023-01-31T11:27:24;96922.66;;;3.78;73.27
42001;BME280;27689;48.390;10.856;2023-01-31T11:30:26;96919.56;;;3.87;72.71
42001;BME280;27689;48.390;10.856;2023-01-31T11:33:43;96906.94;;;3.97;72.37
42001;BME280;27689;48.390;10.856;2023-01-31T11:36:41;96903.78;;;3.76;73.34
42001;BME280;27689;48.390;10.856;2023-01-31T11:39:29;96886.31;;;3.80;72.72
42001;BME280;27689;48.390;10.856;2023-01-31T11:42:15;96892.25;;;3.82;72.52
42001;BME280;27689;48.390;10.856;2023-01-31T11:45:15;96885.94;;;3.86;72.53
42001;BME280;27689;48.390;10.856;2023-01-31T11:48:17;96889.03;;;3.93;72.53
42001;BME280;27689;48.390;10.856;2023-01-31T11:51:05;96889.47;;;3.85;72.27
42001;BME280;27689;48.390;10.856;2023-01-31T11:53:49;96894.88;;;3.96;73.07
42001;BME280;27689;48.390;10.856;2023-01-31T11:56:35;96896.56;;;3.97;72.51
42001;BME280;27689;48.390;10.856;2023-01-31T11:59:24;96892.97;;;4.00;72.77
42001;BME280;27689;48.390;10.856;2023-01-31T12:02:33;96897.56;;;3.95;72.83
42001;BME280;27689;48.390;10.856;2023-01-31T12:05:18;96893.72;;;4.16;73.31
42001;BME280;27689;48.390;10.856;2023-01-31T12:08:03;96894.47;;;4.18;72.92
42001;BME280;27689;48.390;10.856;2023-01-31T12:10:48;96882.53;;;4.15;71.89
42001;BME280;27689;48.390;10.856;2023-01-31T12:13:48;96879.84;;;4.17;71.83
42001;BME280;27689;48.390;10.856;2023-01-31T12:16:34;96879.19;;;4.13;71.96
42001;BME280;27689;48.390;10.856;2023-01-31T12:22:20;96876.66;;;4.42;70.56
42001;BME280;27689;48.390;10.856;2023-01-31T12:25:11;96877.50;;;4.56;70.82
42001;BME280;27689;48.390;10.856;2023-01-31T12:28:04;96858.44;;;4.72;71.76
42001;BME280;27689;48.390;10.856;2023-01-31T12:31:05;96851.56;;;4.85;70.74
42001;BME280;27689;48.390;10.856;2023-01-31T12:34:10;96842.13;;;4.70;70.64
42001;BME280;27689;48.390;10.856;2023-01-31T12:43:47;96824.88;;;4.69;70.88
42001;BME280;27689;48.390;10.856;2023-01-31T12:50:09;96833.22;;;4.59;71.17
42001;BME280;27689;48.390;10.856;2023-01-31T12:56:24;96832.84;;;4.66;70.67
42001;BME280;27689;48.390;10.856;2023-01-31T13:05:20;96814.22;;;4.59;70.47
42001;BME280;27689;48.390;10.856;2023-01-31T13:08:26;96798.66;;;4.59;71.70
42001;BME280;27689;48.390;10.856;2023-01-31T13:11:18;96797.91;;;4.57;70.77
42001;BME280;27689;48.390;10.856;2023-01-31T13:14:04;96781.13;;;4.63;71.59
42001;BME280;27689;48.390;10.856;2023-01-31T13:17:01;96766.03;;;4.55;70.69
42001;BME280;27689;48.390;10.856;2023-01-31T13:19:55;96761.94;;;4.51;70.63
42001;BME280;27689;48.390;10.856;2023-01-31T13:22:48;96757.31;;;4.56;70.28
42001;BME280;27689;48.390;10.856;2023-01-31T13:25:39;96777.34;;;4.40;70.79
42001;BME280;27689;48.390;10.856;2023-01-31T13:28:43;96769.16;;;4.32;70.51
42001;BME280;27689;48.390;10.856;2023-01-31T13:31:36;96780.38;;;4.32;71.25
42001;BME280;27689;48.390;10.856;2023-01-31T13:34:34;96772.06;;;4.13;70.47
42001;BME280;27689;48.390;10.856;2023-01-31T13:37:21;96763.06;;;4.18;71.53
42001;BME280;27689;48.390;10.856;2023-01-31T13:40:21;96778.06;;;4.13;71.18
42001;BME280;27689;48.390;10.856;2023-01-31T13:43:13;96765.94;;;4.14;72.07
42001;BME280;27689;48.390;10.856;2023-01-31T13:46:03;96755.19;;;4.20;72.39
42001;BME280;27689;48.390;10.856;2023-01-31T13:48:54;96754.25;;;4.21;73.51
42001;BME280;27689;48.390;10.856;2023-01-31T13:51:57;96770.06;;;4.02;73.57
42001;BME280;27689;48.390;10.856;2023-01-31T13:54:47;96771.84;;;4.16;73.62
42001;BME280;27689;48.390;10.856;2023-01-31T13:57:35;96768.69;;;3.97;73.90
42001;BME280;27689;48.390;10.856;2023-01-31T14:03:18;96763.94;;;3.89;74.01
42001;BME280;27689;48.390;10.856;2023-01-31T14:06:03;96739.53;;;3.93;73.97
42001;BME280;27689;48.390;10.856;2023-01-31T14:11:33;96740.28;;;3.95;74.46
42001;BME280;27689;48.390;10.856;2023-01-31T14:20:28;96748.97;;;3.94;75.47
42001;BME280;27689;48.390;10.856;2023-01-31T14:23:32;96745.34;;;3.82;76.24
42001;BME280;27689;48.390;10.856;2023-01-31T14:29:25;96770.56;;;3.65;77.67
42001;BME280;27689;48.390;10.856;2023-01-31T14:32:15;96768.66;;;3.68;77.64
42001;BME280;27689;48.390;10.856;2023-01-31T14:35:16;96766.47;;;3.61;78.57
42001;BME280;27689;48.390;10.856;2023-01-31T14:38:18;96780.94;;;3.65;78.37
42001;BME280;27689;48.390;10.856;2023-01-31T14:41:16;96770.44;;;3.82;78.42
42001;BME280;27689;48.390;10.856;2023-01-31T14:44:56;96765.06;;;3.85;77.79
42001;BME280;27689;48.390;10.856;2023-01-31T14:48:00;96775.13;;;3.75;78.21
42001;BME280;27689;48.390;10.856;2023-01-31T14:57:14;96740.66;;;3.59;79.55
42001;BME280;27689;48.390;10.856;2023-01-31T15:00:02;96723.19;;;3.63;79.70
42001;BME280;27689;48.390;10.856;2023-01-31T15:03:06;96702.53;;;3.47;80.63
42001;BME280;27689;48.390;10.856;2023-01-31T15:05:53;96719.69;;;3.64;80.75
42001;BME280;27689;48.390;10.856;2023-01-31T15:08:42;96715.38;;;3.48;80.56
42001;BME280;27689;48.390;10.856;2023-01-31T15:11:38;96727.06;;;3.56;80.81
42001;BME280;27689;48.390;10.856;2023-01-31T15:14:33;96737.97;;;3.61;80.14
42001;BME280;27689;48.390;10.856;2023-01-31T15:17:28;96740.66;;;3.59;80.37
42001;BME280;27689;48.390;10.856;2023-01-31T15:20:17;96730.59;;;3.54;80.59
42001;BME280;27689;48.390;10.856;2023-01-31T15:23:05;96735.94;;;3.51;81.01
42001;BME280;27689;48.390;10.856;2023-01-31T15:25:53;96737.69;;;3.51;80.65
42001;BME280;27689;48.390;10.856;2023-01-31T15:28:40;96724.16;;;3.46;81.17
42001;BME280;27689;48.390;10.856;2023-01-31T15:31:32;96735.69;;;3.56;80.61
42001;BME280;27689;48.390;10.856;2023-01-31T15:34:21;96728.09;;;3.53;80.07
42001;BME280;27689;48.390;10.856;2023-01-31T15:37:17;96711.38;;;3.43;80.71
42001;BME280;27689;48.390;10.856;2023-01-31T15:40:15;96707.50;;;3.36;80.90
42001;BME280;27689;48.390;10.856;2023-01-31T15:43:22;96702.34;;;3.50;80.98
42001;BME280;27689;48.390;10.856;2023-01-31T15:46:22;96719.31;;;3.56;80.40
42001;BME280;27689;48.390;10.856;2023-01-31T15:49:27;96727.44;;;3.64;79.83
42001;BME280;27689;48.390;10.856;2023-01-31T15:52:17;96720.78;;;3.60;79.72
42001;BME280;27689;48.390;10.856;2023-01-31T15:55:03;96732.44;;;3.52;80.61
42001;BME280;27689;48.390;10.856;2023-01-31T15:57:55;96735.84;;;3.53;80.16
42001;BME280;27689;48.390;10.856;2023-01-31T16:00:40;96737.94;;;3.46;80.38
42001;BME280;27689;48.390;10.856;2023-01-31T16:03:26;96745.28;;;3.54;80.54
42001;BME280;27689;48.390;10.856;2023-01-31T16:06:31;96732.72;;;3.62;80.06
42001;BME280;27689;48.390;10.856;2023-01-31T16:09:25;96743.03;;;3.48;80.35
42001;BME280;27689;48.390;10.856;2023-01-31T16:12:11;96731.69;;;3.50;80.65
42001;BME280;27689;48.390;10.856;2023-01-31T16:15:00;96738.06;;;3.59;80.10